createdAt,value
2023-03-07T00:00:50.277Z,12.53
2023-03-07T00:03:20.655Z,12.90
2023-03-07T00:05:49.796Z,13.43
2023-03-07T00:08:17.604Z,11.80
2023-03-07T00:10:45.365Z,13.77
2023-03-07T00:13:13.161Z,12.80
2023-03-07T00:15:41.367Z,15.40
2023-03-07T00:18:09.169Z,13.83
2023-03-07T00:20:36.981Z,13.23
2023-03-07T00:23:06.146Z,12.83
2023-03-07T00:25:33.910Z,12.97
2023-03-07T00:28:01.686Z,15.53
2023-03-07T00:30:29.542Z,17.10
2023-03-07T00:32:57.322Z,14.30
2023-03-07T00:35:25.095Z,15.83
2023-03-07T00:37:52.877Z,15.20
2023-03-07T00:40:22.066Z,13.40
2023-03-07T00:42:49.842Z,11.87
2023-03-07T00:45:17.713Z,12.33
2023-03-07T00:47:45.503Z,18.27
2023-03-07T00:50:13.259Z,13.67
2023-03-07T00:52:41.033Z,12.40
2023-03-07T00:55:10.021Z,14.40
2023-03-07T00:57:39.119Z,14.13
2023-03-07T01:00:08.917Z,15.00
2023-03-07T01:02:36.680Z,15.37
2023-03-07T01:05:05.169Z,14.10
2023-03-07T01:07:32.938Z,15.10
2023-03-07T01:10:00.702Z,14.70
2023-03-07T01:12:28.460Z,15.87
2023-03-07T01:14:57.553Z,13.97
2023-03-07T01:17:25.464Z,14.90
2023-03-07T01:19:53.234Z,12.93
2023-03-07T01:22:20.999Z,14.30
2023-03-07T01:24:48.759Z,14.13
2023-03-07T01:27:16.538Z,13.93
2023-03-07T01:29:44.393Z,13.67
2023-03-07T01:32:13.653Z,15.27
2023-03-07T01:34:41.533Z,12.67
2023-03-07T01:37:09.335Z,12.70
2023-03-07T01:39:37.119Z,13.90
2023-03-07T01:42:05.305Z,12.40
2023-03-07T01:44:53.125Z,15.43
2023-03-07T01:47:22.229Z,12.50
2023-03-07T01:49:50.227Z,12.20
2023-03-07T01:52:21.438Z,13.30
2023-03-07T01:54:53.040Z,12.30
2023-03-07T01:57:23.695Z,13.47
2023-03-07T01:59:55.635Z,10.67
2023-03-07T02:02:25.542Z,11.00
2023-03-07T02:04:58.095Z,12.30
2023-03-07T02:07:30.884Z,12.47
2023-03-07T02:10:01.457Z,16.27
2023-03-07T02:12:29.433Z,14.63
2023-03-07T02:14:57.330Z,13.27
2023-03-07T02:17:27.804Z,12.93
2023-03-07T02:20:08.784Z,15.93
2023-03-07T02:22:36.609Z,14.03
2023-03-07T02:25:11.562Z,11.77
2023-03-07T02:27:41.831Z,13.73
2023-03-07T02:30:11.229Z,11.93
2023-03-07T02:32:39.089Z,10.70
2023-03-07T02:35:14.520Z,9.60
2023-03-07T02:37:45.303Z,12.63
2023-03-07T02:40:16.425Z,12.27
2023-03-07T02:42:46.622Z,11.27
2023-03-07T02:45:16.543Z,10.10
2023-03-07T02:47:44.928Z,11.87
2023-03-07T02:50:14.964Z,11.47
2023-03-07T02:52:43.030Z,11.10
2023-03-07T02:55:11.731Z,11.13
2023-03-07T02:57:39.554Z,11.20
2023-03-07T03:00:12.243Z,13.83
2023-03-07T03:02:40.728Z,13.20
2023-03-07T03:05:09.114Z,12.10
2023-03-07T03:07:36.919Z,10.53
2023-03-07T03:10:05.219Z,12.27
2023-03-07T03:12:33.104Z,11.13
2023-03-07T03:15:00.855Z,10.73
2023-03-07T03:17:29.960Z,13.50
2023-03-07T03:19:57.739Z,12.57
2023-03-07T03:22:25.677Z,12.03
2023-03-07T03:24:53.489Z,14.57
2023-03-07T03:27:21.269Z,11.17
2023-03-07T03:29:49.209Z,11.77
2023-03-07T03:32:17.258Z,11.57
2023-03-07T03:34:46.419Z,12.43
2023-03-07T03:37:14.220Z,13.67
2023-03-07T03:39:42.229Z,11.20
2023-03-07T03:42:10.034Z,11.50
2023-03-07T03:44:37.824Z,14.73
2023-03-07T03:47:05.829Z,11.13
2023-03-07T03:49:33.592Z,15.30
2023-03-07T03:52:02.723Z,13.67
2023-03-07T03:54:30.824Z,12.13
2023-03-07T03:56:58.628Z,13.47
2023-03-07T03:59:26.529Z,12.80
2023-03-07T04:01:55.090Z,14.70
2023-03-07T04:04:23.343Z,14.70
2023-03-07T04:06:51.110Z,13.90
2023-03-07T04:09:20.189Z,16.23
2023-03-07T04:11:47.961Z,14.60
2023-03-07T04:14:15.726Z,10.60
2023-03-07T04:16:43.557Z,12.43
2023-03-07T04:19:12.967Z,13.33
2023-03-07T04:21:40.924Z,13.90
2023-03-07T04:24:09.295Z,12.60
2023-03-07T04:26:38.674Z,12.40
2023-03-07T04:29:06.610Z,13.47
2023-03-07T04:31:34.425Z,13.73
2023-03-07T04:34:02.276Z,13.93
2023-03-07T04:36:30.214Z,13.27
2023-03-07T04:38:58.016Z,18.80
2023-03-07T04:41:27.008Z,13.00
2023-03-07T04:43:56.250Z,12.87
2023-03-07T04:46:24.192Z,13.87
2023-03-07T04:48:52.020Z,13.80
2023-03-07T04:51:19.764Z,13.80
2023-03-07T04:53:47.569Z,9.53
2023-03-07T04:56:16.149Z,13.17
2023-03-07T04:58:44.896Z,14.50
2023-03-07T05:01:14.223Z,13.97
2023-03-07T05:03:42.251Z,13.43
2023-03-07T05:06:13.890Z,16.07
2023-03-07T05:08:41.657Z,14.73
2023-03-07T05:11:09.582Z,11.37
2023-03-07T05:13:37.667Z,15.97
2023-03-07T05:16:06.186Z,12.53
2023-03-07T05:18:35.407Z,15.50
2023-03-07T05:21:03.177Z,13.50
2023-03-07T05:23:30.972Z,12.30
2023-03-07T05:25:58.746Z,12.37
2023-03-07T05:28:26.609Z,14.27
2023-03-07T05:30:54.495Z,14.33
2023-03-07T05:33:22.283Z,12.60
2023-03-07T05:35:51.435Z,10.80
2023-03-07T05:38:19.238Z,13.07
2023-03-07T05:40:47.041Z,11.97
2023-03-07T05:43:14.822Z,11.47
2023-03-07T05:45:42.582Z,13.23
2023-03-07T05:48:10.339Z,10.67
2023-03-07T05:50:38.821Z,11.00
2023-03-07T05:53:08.000Z,12.57
2023-03-07T05:55:35.773Z,11.97
2023-03-07T05:58:03.737Z,11.80
2023-03-07T06:00:31.780Z,13.40
2023-03-07T06:02:59.642Z,14.17
2023-03-07T06:05:27.553Z,11.73
2023-03-07T06:07:55.421Z,11.97
2023-03-07T06:10:25.685Z,12.70
2023-03-07T06:12:54.431Z,11.53
2023-03-07T06:15:24.723Z,12.30
2023-03-07T06:17:53.479Z,11.70
2023-03-07T06:20:21.731Z,15.33
2023-03-07T06:22:49.623Z,19.37
2023-03-07T06:25:21.481Z,15.33
2023-03-07T06:27:51.057Z,13.13
2023-03-07T06:30:19.184Z,12.07
2023-03-07T06:32:46.946Z,12.03
2023-03-07T06:35:14.684Z,26.40
2023-03-07T06:37:42.707Z,16.90
2023-03-07T06:40:11.902Z,24.07
2023-03-07T06:42:39.765Z,38.80
2023-03-07T06:45:09.870Z,30.03
2023-03-07T06:47:37.617Z,24.47
2023-03-07T06:50:06.067Z,19.83
2023-03-07T06:52:33.892Z,18.27
2023-03-07T06:55:02.042Z,16.00
2023-03-07T06:57:29.824Z,14.43
2023-03-07T06:59:57.608Z,12.57
2023-03-07T07:02:26.911Z,11.93
2023-03-07T07:04:54.785Z,13.20
2023-03-07T07:07:22.586Z,15.13
2023-03-07T07:09:50.364Z,14.57
2023-03-07T07:12:18.204Z,14.30
2023-03-07T07:14:45.961Z,14.20
2023-03-07T07:17:14.034Z,16.30
2023-03-07T07:19:43.203Z,12.57
2023-03-07T07:22:11.949Z,14.20
2023-03-07T07:24:40.141Z,16.50
2023-03-07T07:27:08.253Z,14.47
2023-03-07T07:29:36.158Z,11.70
2023-03-07T07:32:04.430Z,14.73
2023-03-07T07:34:32.339Z,12.70
2023-03-07T07:37:01.442Z,12.60
2023-03-07T07:39:29.201Z,12.00
2023-03-07T07:41:56.983Z,10.60
2023-03-07T07:44:24.784Z,10.90
2023-03-07T07:46:52.538Z,11.53
2023-03-07T07:49:20.315Z,10.20
2023-03-07T07:51:48.067Z,11.47
2023-03-07T07:54:17.223Z,11.77
2023-03-07T07:56:45.078Z,12.33
2023-03-07T07:59:12.935Z,13.53
2023-03-07T08:01:40.706Z,11.70
2023-03-07T08:04:08.718Z,11.33
2023-03-07T08:06:36.536Z,12.90
2023-03-07T08:09:05.334Z,11.67
2023-03-07T08:11:34.479Z,13.03
2023-03-07T08:14:03.213Z,9.53
2023-03-07T08:16:31.032Z,11.27
2023-03-07T08:19:00.480Z,10.33
2023-03-07T08:21:28.496Z,10.60
2023-03-07T08:23:56.681Z,10.43
2023-03-07T08:26:24.771Z,10.23
2023-03-07T08:28:54.382Z,10.00
2023-03-07T08:31:24.388Z,12.43
2023-03-07T08:33:53.538Z,10.87
2023-03-07T08:36:21.462Z,9.47
2023-03-07T08:38:51.451Z,9.70
2023-03-07T08:41:20.209Z,9.93
2023-03-07T08:43:48.246Z,11.13
2023-03-07T08:46:17.675Z,10.37
2023-03-07T08:48:45.596Z,9.90
2023-03-07T08:51:15.746Z,11.50
2023-03-07T08:53:44.476Z,9.80
2023-03-07T08:56:30.438Z,9.53
2023-03-07T08:58:58.221Z,10.00
2023-03-07T09:01:27.476Z,11.57
2023-03-07T09:03:55.247Z,9.87
2023-03-07T09:06:23.463Z,10.53
2023-03-07T09:08:51.788Z,11.63
2023-03-07T09:11:21.519Z,9.83
2023-03-07T09:13:52.702Z,10.00
2023-03-07T09:16:21.275Z,9.50
2023-03-07T09:18:50.857Z,8.50
2023-03-07T09:21:18.793Z,9.60
2023-03-07T09:23:46.555Z,8.97
2023-03-07T09:26:14.534Z,12.20
2023-03-07T09:28:42.484Z,7.93
2023-03-07T09:31:11.845Z,8.20
2023-03-07T09:33:40.622Z,10.83
2023-03-07T09:36:12.826Z,8.80
2023-03-07T09:38:40.960Z,6.87
2023-03-07T09:41:18.613Z,7.40
2023-03-07T09:43:56.638Z,8.43
2023-03-07T09:46:33.086Z,6.23
2023-03-07T09:49:21.021Z,8.77
2023-03-07T09:51:52.894Z,7.60
2023-03-07T09:54:23.583Z,8.07
2023-03-07T09:56:55.719Z,7.90
2023-03-07T09:59:29.975Z,7.37
2023-03-07T10:02:05.888Z,7.50
2023-03-07T10:04:41.409Z,9.47
2023-03-07T10:07:12.671Z,8.33
2023-03-07T10:09:40.514Z,7.47
2023-03-07T10:12:37.581Z,10.13
2023-03-07T10:15:29.897Z,7.47
2023-03-07T10:18:17.107Z,7.23
2023-03-07T10:20:49.715Z,8.80
2023-03-07T10:23:49.743Z,6.63
2023-03-07T10:26:24.145Z,8.53
2023-03-07T10:28:52.062Z,6.60
2023-03-07T10:31:24.920Z,7.60
2023-03-07T10:33:54.905Z,10.00
2023-03-07T10:36:29.656Z,8.10
2023-03-07T10:39:05.387Z,6.60
2023-03-07T10:41:33.150Z,10.47
2023-03-07T10:44:00.949Z,9.13
2023-03-07T10:46:31.449Z,7.60
2023-03-07T10:49:13.003Z,8.07
2023-03-07T10:51:51.945Z,7.30
2023-03-07T10:54:23.629Z,8.43
2023-03-07T10:57:07.902Z,6.63
2023-03-07T10:59:36.334Z,8.30
2023-03-07T11:02:24.338Z,8.63
2023-03-07T11:04:53.437Z,8.87
2023-03-07T11:07:28.505Z,8.20
2023-03-07T11:09:58.729Z,5.27
2023-03-07T11:12:29.007Z,6.83
2023-03-07T11:14:58.928Z,5.83
2023-03-07T11:17:30.462Z,5.80
2023-03-07T11:19:59.089Z,6.57
2023-03-07T11:22:29.844Z,6.17
2023-03-07T11:25:02.563Z,5.27
2023-03-07T11:27:37.451Z,6.73
2023-03-07T11:30:17.634Z,11.63
2023-03-07T11:32:52.895Z,6.50
2023-03-07T11:35:24.492Z,5.90
2023-03-07T11:38:03.917Z,6.83
2023-03-07T11:40:40.422Z,6.90
2023-03-07T11:43:19.718Z,5.13
2023-03-07T11:45:52.943Z,5.70
2023-03-07T11:48:35.930Z,5.03
2023-03-07T11:51:04.517Z,5.80
2023-03-07T11:53:56.270Z,7.07
2023-03-07T11:56:31.922Z,6.40
2023-03-07T11:59:28.722Z,6.00
2023-03-07T12:01:59.234Z,5.27
2023-03-07T12:04:52.646Z,6.77
2023-03-07T12:07:41.739Z,5.47
2023-03-07T12:10:16.838Z,5.30
2023-03-07T12:12:56.524Z,6.20
2023-03-07T12:15:33.244Z,10.13
2023-03-07T12:18:20.745Z,5.27
2023-03-07T12:20:58.207Z,6.07
2023-03-07T12:23:33.815Z,5.10
2023-03-07T12:26:07.791Z,4.80
2023-03-07T12:28:44.800Z,6.53
2023-03-07T12:31:16.792Z,6.27
2023-03-07T12:33:51.379Z,6.23
2023-03-07T12:36:28.864Z,6.97
2023-03-07T12:39:02.165Z,6.33
2023-03-07T12:41:47.195Z,7.17
2023-03-07T12:44:24.108Z,6.53
2023-03-07T12:46:59.548Z,5.47
2023-03-07T12:49:49.120Z,4.97
2023-03-07T12:52:24.750Z,5.57
2023-03-07T12:54:58.855Z,6.70
2023-03-07T12:57:30.859Z,7.43
2023-03-07T13:00:06.193Z,7.93
2023-03-07T13:02:41.802Z,5.97
2023-03-07T13:05:20.361Z,4.70
2023-03-07T13:07:49.932Z,4.53
2023-03-07T13:10:20.513Z,5.83
2023-03-07T13:12:48.788Z,5.87
2023-03-07T13:16:03.203Z,5.40
2023-03-07T13:18:33.535Z,6.60
2023-03-07T13:21:15.574Z,5.63
2023-03-07T13:23:43.405Z,5.43
2023-03-07T13:26:14.593Z,7.27
2023-03-07T13:28:51.351Z,7.03
2023-03-07T13:31:46.265Z,6.17
2023-03-07T13:34:51.347Z,6.10
2023-03-07T13:37:54.045Z,5.97
2023-03-07T13:40:53.199Z,6.03
2023-03-07T13:43:55.388Z,6.23
2023-03-07T13:46:48.131Z,6.30
2023-03-07T13:49:46.080Z,5.90
2023-03-07T13:52:33.898Z,6.90
2023-03-07T13:55:04.308Z,3.53
2023-03-07T13:57:41.438Z,4.00
2023-03-07T14:00:50.990Z,4.33
2023-03-07T14:03:28.006Z,4.27
2023-03-07T14:05:59.005Z,5.53
2023-03-07T14:08:32.583Z,5.67
2023-03-07T14:11:01.958Z,5.23
2023-03-07T14:14:15.822Z,5.77
2023-03-07T14:16:59.050Z,7.83
2023-03-07T14:19:55.789Z,4.90
2023-03-07T14:22:40.872Z,4.70
2023-03-07T14:25:17.459Z,5.10
2023-03-07T14:27:57.171Z,3.60
2023-03-07T14:30:26.975Z,7.27
2023-03-07T14:32:54.919Z,6.43
2023-03-07T14:35:36.949Z,5.73
2023-03-07T14:38:09.814Z,5.53
2023-03-07T14:40:49.237Z,5.03
2023-03-07T14:43:37.559Z,6.47
2023-03-07T14:46:12.153Z,6.37
2023-03-07T14:48:54.607Z,5.27
2023-03-07T14:51:25.010Z,6.90
2023-03-07T14:53:54.359Z,7.60
2023-03-07T14:56:25.047Z,6.60
2023-03-07T14:58:55.660Z,7.30
2023-03-07T15:01:23.590Z,10.33
2023-03-07T15:03:53.215Z,6.73
2023-03-07T15:06:23.074Z,6.43
2023-03-07T15:08:51.993Z,5.97
2023-03-07T15:11:32.688Z,6.10
2023-03-07T15:14:03.898Z,13.20
2023-03-07T15:16:35.334Z,8.57
2023-03-07T15:19:09.880Z,9.80
2023-03-07T15:21:40.638Z,8.33
2023-03-07T15:24:18.617Z,6.57
2023-03-07T15:26:51.407Z,6.27
2023-03-07T15:29:22.797Z,7.13
2023-03-07T15:31:53.335Z,6.70
2023-03-07T15:34:24.915Z,4.40
2023-03-07T15:36:53.150Z,6.13
2023-03-07T15:39:34.178Z,6.73
2023-03-07T15:42:06.130Z,7.67
2023-03-07T15:44:35.025Z,5.63
2023-03-07T15:47:13.237Z,6.27
2023-03-07T15:49:44.797Z,8.23
2023-03-07T15:52:23.568Z,6.93
2023-03-07T15:54:53.294Z,8.10
2023-03-07T15:57:24.311Z,8.27
2023-03-07T15:59:56.516Z,10.47
2023-03-07T16:02:40.407Z,10.33
2023-03-07T16:05:32.826Z,6.33
2023-03-07T16:08:00.667Z,6.77
2023-03-07T16:10:31.362Z,7.50
2023-03-07T16:13:01.780Z,6.83
2023-03-07T16:15:29.688Z,12.53
2023-03-07T16:17:58.569Z,27.23
2023-03-07T16:20:28.897Z,8.87
2023-03-07T16:22:56.738Z,9.63
2023-03-07T16:25:27.278Z,6.90
2023-03-07T16:27:57.694Z,8.67
2023-03-07T16:30:29.416Z,5.83
2023-03-07T16:32:57.258Z,5.37
2023-03-07T16:35:27.639Z,6.50
2023-03-07T16:37:56.241Z,6.97
2023-03-07T16:40:25.882Z,6.03
2023-03-07T16:42:54.583Z,6.47
2023-03-07T16:45:25.640Z,5.83
2023-03-07T16:47:56.750Z,10.73
2023-03-07T16:50:26.961Z,8.80
2023-03-07T16:52:54.748Z,8.83
2023-03-07T16:55:23.203Z,8.60
2023-03-07T16:57:54.169Z,6.70
2023-03-07T17:00:24.057Z,8.33
2023-03-07T17:02:55.884Z,11.13
2023-03-07T17:05:25.778Z,8.73
2023-03-07T17:07:54.305Z,6.73
2023-03-07T17:10:22.929Z,4.13
2023-03-07T17:12:51.482Z,6.47
2023-03-07T17:15:22.665Z,6.03
2023-03-07T17:17:50.464Z,4.73
2023-03-07T17:20:21.124Z,4.73
2023-03-07T17:22:49.401Z,7.70
2023-03-07T17:25:17.733Z,6.90
2023-03-07T17:27:51.234Z,5.00
2023-03-07T17:30:21.412Z,7.50
2023-03-07T17:32:49.487Z,8.47
2023-03-07T17:35:19.529Z,10.20
2023-03-07T17:37:48.495Z,11.23
2023-03-07T17:40:16.897Z,7.70
2023-03-07T17:42:45.347Z,7.37
2023-03-07T17:45:14.145Z,5.23
2023-03-07T17:47:41.952Z,5.80
2023-03-07T17:50:11.327Z,5.47
2023-03-07T17:52:40.517Z,5.23
2023-03-07T17:55:11.946Z,6.37
2023-03-07T17:57:39.678Z,6.80
2023-03-07T18:00:13.667Z,5.60
2023-03-07T18:02:43.576Z,5.83
2023-03-07T18:05:12.790Z,8.27
2023-03-07T18:07:42.206Z,7.30
2023-03-07T18:10:12.510Z,6.23
2023-03-07T18:12:40.391Z,6.10
2023-03-07T18:15:12.259Z,4.90
2023-03-07T18:17:47.933Z,5.33
2023-03-07T18:20:17.838Z,6.87
2023-03-07T18:22:47.152Z,4.53
2023-03-07T18:25:16.699Z,5.13
2023-03-07T18:27:44.785Z,6.80
2023-03-07T18:30:14.218Z,5.37
2023-03-07T18:32:42.087Z,6.27
2023-03-07T18:35:10.477Z,6.13
2023-03-07T18:37:38.462Z,7.17
2023-03-07T18:40:09.498Z,7.83
2023-03-07T18:42:38.983Z,6.70
2023-03-07T18:45:07.984Z,4.43
2023-03-07T18:47:35.776Z,5.10
2023-03-07T18:50:03.545Z,7.03
2023-03-07T18:52:31.334Z,7.70
2023-03-07T18:54:59.102Z,5.60
2023-03-07T18:57:28.202Z,5.83
2023-03-07T18:59:55.989Z,5.90
2023-03-07T19:02:23.810Z,5.07
2023-03-07T19:04:51.608Z,5.73
2023-03-07T19:07:19.378Z,6.83
2023-03-07T19:09:53.047Z,5.47
2023-03-07T19:12:20.868Z,6.00
2023-03-07T19:14:50.027Z,6.27
2023-03-07T19:17:17.821Z,5.93
2023-03-07T19:19:46.766Z,6.17
2023-03-07T19:22:14.563Z,5.37
2023-03-07T19:24:43.256Z,4.20
2023-03-07T19:27:11.025Z,5.63
2023-03-07T19:29:38.802Z,4.43
2023-03-07T19:32:08.100Z,5.07
2023-03-07T19:34:35.894Z,5.10
2023-03-07T19:37:03.776Z,6.00
2023-03-07T19:39:31.548Z,7.27
2023-03-07T19:41:59.297Z,5.10
2023-03-07T19:44:27.141Z,6.43
2023-03-07T19:46:54.914Z,5.27
2023-03-07T19:49:26.369Z,5.80
2023-03-07T19:51:54.176Z,5.40
2023-03-07T19:54:22.472Z,5.27
2023-03-07T19:56:50.327Z,5.80
2023-03-07T19:59:18.165Z,6.83
2023-03-07T20:01:46.025Z,5.00
2023-03-07T20:04:15.939Z,4.87
2023-03-07T20:06:45.519Z,6.90
2023-03-07T20:09:14.441Z,6.47
2023-03-07T20:11:43.734Z,6.73
2023-03-07T20:14:12.052Z,6.17
2023-03-07T20:16:39.845Z,4.93
2023-03-07T20:19:09.655Z,7.33
2023-03-07T20:21:38.087Z,5.70
2023-03-07T20:24:08.639Z,6.50
2023-03-07T20:26:39.090Z,5.80
2023-03-07T20:29:08.450Z,5.77
2023-03-07T20:31:36.663Z,4.80
2023-03-07T20:34:04.504Z,5.20
2023-03-07T20:36:34.573Z,6.30
2023-03-07T20:39:04.200Z,7.57
2023-03-07T20:41:34.245Z,6.50
2023-03-07T20:44:03.545Z,5.57
2023-03-07T20:46:32.257Z,7.40
2023-03-07T20:49:02.057Z,5.23
2023-03-07T20:51:31.722Z,5.20
2023-03-07T20:54:01.197Z,6.53
2023-03-07T20:56:31.362Z,5.37
2023-03-07T20:59:01.123Z,6.53
2023-03-07T21:01:31.213Z,8.30
2023-03-07T21:04:00.984Z,6.87
2023-03-07T21:06:28.790Z,6.23
2023-03-07T21:08:59.293Z,6.17
2023-03-07T21:11:28.112Z,5.67
2023-03-07T21:13:55.883Z,5.47
2023-03-07T21:16:27.083Z,4.83
2023-03-07T21:18:59.644Z,6.60
2023-03-07T21:21:30.116Z,6.07
2023-03-07T21:23:58.202Z,7.20
2023-03-07T21:26:27.359Z,7.33
2023-03-07T21:28:55.486Z,5.70
2023-03-07T21:31:26.136Z,5.07
2023-03-07T21:33:55.841Z,6.67
2023-03-07T21:36:26.833Z,5.00
2023-03-07T21:38:55.173Z,5.43
2023-03-07T21:41:24.865Z,5.27
2023-03-07T21:43:52.750Z,5.27
2023-03-07T21:46:20.606Z,5.17
2023-03-07T21:48:49.809Z,6.77
2023-03-07T21:51:17.862Z,5.40
2023-03-07T21:53:45.644Z,7.73
2023-03-07T21:56:16.882Z,11.33
2023-03-07T21:58:47.506Z,7.63
2023-03-07T22:01:17.181Z,7.90
2023-03-07T22:03:45.840Z,5.47
2023-03-07T22:06:16.509Z,7.40
2023-03-07T22:08:44.556Z,5.63
2023-03-07T22:11:13.834Z,5.57
2023-03-07T22:13:42.838Z,5.63
2023-03-07T22:16:13.005Z,7.93
2023-03-07T22:18:41.287Z,6.37
2023-03-07T22:21:10.210Z,6.53
2023-03-07T22:23:39.313Z,5.03
2023-03-07T22:26:09.025Z,9.47
2023-03-07T22:28:36.995Z,7.00
2023-03-07T22:31:06.592Z,6.33
2023-03-07T22:33:34.591Z,5.93
2023-03-07T22:36:04.752Z,6.67
2023-03-07T22:38:32.926Z,5.63
2023-03-07T22:41:07.141Z,5.70
2023-03-07T22:43:36.308Z,6.67
2023-03-07T22:46:04.493Z,6.23
2023-03-07T22:48:32.358Z,6.70
2023-03-07T22:51:00.262Z,5.53
2023-03-07T22:53:30.763Z,7.47
2023-03-07T22:56:00.043Z,6.33
2023-03-07T22:58:30.247Z,4.60
2023-03-07T23:00:58.099Z,6.80
2023-03-07T23:03:25.969Z,7.40
2023-03-07T23:05:53.783Z,6.13
2023-03-07T23:08:21.562Z,5.87
2023-03-07T23:10:49.337Z,4.97
2023-03-07T23:13:17.338Z,5.93
2023-03-07T23:15:46.576Z,5.83
2023-03-07T23:18:14.364Z,8.77
2023-03-07T23:20:42.157Z,5.83
2023-03-07T23:23:10.159Z,5.73
2023-03-07T23:25:42.010Z,5.83
2023-03-07T23:28:09.948Z,7.27
2023-03-07T23:30:38.653Z,7.60
2023-03-07T23:33:08.349Z,6.40
2023-03-07T23:35:36.656Z,9.33
2023-03-07T23:38:05.378Z,7.20
2023-03-07T23:40:35.040Z,5.33
2023-03-07T23:43:04.541Z,6.23
2023-03-07T23:45:33.038Z,5.43
2023-03-07T23:48:00.882Z,5.50
2023-03-07T23:50:30.140Z,4.73
2023-03-07T23:52:57.890Z,5.83
2023-03-07T23:55:25.644Z,5.87
2023-03-07T23:57:53.450Z,5.00
